sensor_id;sensor_type;location;lat;lon;timestamp;P1;durP1;ratioP1;P2;durP2;ratioP2
67571;SDS011;54397;47.506;19.158;2023-12-29T00:00:47;56.93;;;31.83;;
67571;SDS011;54397;47.506;19.158;2023-12-29T00:04:11;61.63;;;32.17;;
67571;SDS011;54397;47.506;19.158;2023-12-29T00:07:33;57.67;;;34.57;;
67571;SDS011;54397;47.506;19.158;2023-12-29T00:10:57;58.73;;;33.03;;
67571;SDS011;54397;47.506;19.158;2023-12-29T00:14:19;51.00;;;31.00;;
67571;SDS011;54397;47.506;19.158;2023-12-29T00:17:43;55.47;;;31.73;;
67571;SDS011;54397;47.506;19.158;2023-12-29T00:21:05;56.57;;;30.37;;
67571;SDS011;54397;47.506;19.158;2023-12-29T00:24:30;53.03;;;31.90;;
67571;SDS011;54397;47.506;19.158;2023-12-29T00:27:53;54.47;;;32.57;;
67571;SDS011;54397;47.506;19.158;2023-12-29T00:31:19;60.23;;;33.83;;
67571;SDS011;54397;47.506;19.158;2023-12-29T00:34:45;57.40;;;31.90;;
67571;SDS011;54397;47.506;19.158;2023-12-29T00:38:07;54.23;;;32.07;;
67571;SDS011;54397;47.506;19.158;2023-12-29T00:41:29;85.60;;;48.13;;
67571;SDS011;54397;47.506;19.158;2023-12-29T00:44:50;65.10;;;35.00;;
67571;SDS011;54397;47.506;19.158;2023-12-29T00:48:15;49.80;;;30.93;;
67571;SDS011;54397;47.506;19.158;2023-12-29T00:51:42;52.60;;;31.30;;
67571;SDS011;54397;47.506;19.158;2023-12-29T00:55:06;55.17;;;32.60;;
67571;SDS011;54397;47.506;19.158;2023-12-29T00:58:30;57.23;;;32.07;;
67571;SDS011;54397;47.506;19.158;2023-12-29T01:01:55;59.07;;;32.83;;
67571;SDS011;54397;47.506;19.158;2023-12-29T01:05:19;57.00;;;33.33;;
67571;SDS011;54397;47.506;19.158;2023-12-29T01:08:42;58.27;;;32.67;;
67571;SDS011;54397;47.506;19.158;2023-12-29T01:12:04;59.23;;;33.93;;
67571;SDS011;54397;47.506;19.158;2023-12-29T01:15:28;51.87;;;32.57;;
67571;SDS011;54397;47.506;19.158;2023-12-29T01:18:50;52.13;;;31.67;;
67571;SDS011;54397;47.506;19.158;2023-12-29T01:22:12;55.80;;;32.47;;
67571;SDS011;54397;47.506;19.158;2023-12-29T01:25:36;57.50;;;31.77;;
67571;SDS011;54397;47.506;19.158;2023-12-29T01:29:00;52.10;;;32.00;;
67571;SDS011;54397;47.506;19.158;2023-12-29T01:32:25;54.53;;;32.37;;
67571;SDS011;54397;47.506;19.158;2023-12-29T01:35:52;52.27;;;32.57;;
67571;SDS011;54397;47.506;19.158;2023-12-29T01:39:16;54.57;;;32.57;;
67571;SDS011;54397;47.506;19.158;2023-12-29T01:42:38;53.47;;;32.53;;
67571;SDS011;54397;47.506;19.158;2023-12-29T01:46:00;54.43;;;32.97;;
67571;SDS011;54397;47.506;19.158;2023-12-29T01:49:22;56.60;;;32.03;;
67571;SDS011;54397;47.506;19.158;2023-12-29T01:52:44;52.53;;;29.93;;
67571;SDS011;54397;47.506;19.158;2023-12-29T01:56:09;50.27;;;30.43;;
67571;SDS011;54397;47.506;19.158;2023-12-29T01:59:31;49.10;;;29.37;;
67571;SDS011;54397;47.506;19.158;2023-12-29T02:02:53;50.27;;;30.47;;
67571;SDS011;54397;47.506;19.158;2023-12-29T02:06:17;54.20;;;31.73;;
67571;SDS011;54397;47.506;19.158;2023-12-29T02:09:41;51.63;;;30.13;;
67571;SDS011;54397;47.506;19.158;2023-12-29T02:13:06;48.87;;;29.10;;
67571;SDS011;54397;47.506;19.158;2023-12-29T02:20:27;48.13;;;29.33;;
67571;SDS011;54397;47.506;19.158;2023-12-29T02:23:49;49.17;;;29.80;;
67571;SDS011;54397;47.506;19.158;2023-12-29T02:27:21;51.13;;;31.07;;
67571;SDS011;54397;47.506;19.158;2023-12-29T02:34:36;50.80;;;31.30;;
67571;SDS011;54397;47.506;19.158;2023-12-29T02:38:00;69.67;;;38.00;;
67571;SDS011;54397;47.506;19.158;2023-12-29T02:41:23;78.13;;;38.27;;
67571;SDS011;54397;47.506;19.158;2023-12-29T02:44:46;56.93;;;33.57;;
67571;SDS011;54397;47.506;19.158;2023-12-29T02:48:10;67.60;;;35.30;;
67571;SDS011;54397;47.506;19.158;2023-12-29T02:51:32;52.77;;;31.00;;
67571;SDS011;54397;47.506;19.158;2023-12-29T02:54:54;81.13;;;41.33;;
67571;SDS011;54397;47.506;19.158;2023-12-29T02:58:16;79.77;;;34.23;;
67571;SDS011;54397;47.506;19.158;2023-12-29T03:01:42;60.90;;;33.80;;
67571;SDS011;54397;47.506;19.158;2023-12-29T03:05:07;51.83;;;28.73;;
67571;SDS011;54397;47.506;19.158;2023-12-29T03:08:29;55.50;;;28.87;;
67571;SDS011;54397;47.506;19.158;2023-12-29T03:11:56;49.67;;;27.97;;
67571;SDS011;54397;47.506;19.158;2023-12-29T03:15:20;42.30;;;24.97;;
67571;SDS011;54397;47.506;19.158;2023-12-29T03:18:41;46.23;;;26.90;;
67571;SDS011;54397;47.506;19.158;2023-12-29T03:22:08;44.40;;;25.30;;
67571;SDS011;54397;47.506;19.158;2023-12-29T03:25:31;44.90;;;26.97;;
67571;SDS011;54397;47.506;19.158;2023-12-29T03:28:53;52.73;;;25.53;;
67571;SDS011;54397;47.506;19.158;2023-12-29T03:32:21;45.90;;;25.27;;
67571;SDS011;54397;47.506;19.158;2023-12-29T03:35:45;44.87;;;24.70;;
67571;SDS011;54397;47.506;19.158;2023-12-29T03:39:09;56.37;;;24.97;;
67571;SDS011;54397;47.506;19.158;2023-12-29T03:42:33;40.93;;;23.10;;
67571;SDS011;54397;47.506;19.158;2023-12-29T03:45:55;43.33;;;23.73;;
67571;SDS011;54397;47.506;19.158;2023-12-29T03:49:17;41.40;;;24.37;;
67571;SDS011;54397;47.506;19.158;2023-12-29T03:52:39;57.27;;;35.13;;
67571;SDS011;54397;47.506;19.158;2023-12-29T03:56:06;41.97;;;22.73;;
67571;SDS011;54397;47.506;19.158;2023-12-29T03:59:28;40.57;;;20.50;;
67571;SDS011;54397;47.506;19.158;2023-12-29T04:02:53;34.77;;;22.83;;
67571;SDS011;54397;47.506;19.158;2023-12-29T04:06:17;36.20;;;21.93;;
67571;SDS011;54397;47.506;19.158;2023-12-29T04:09:41;47.47;;;23.20;;
67571;SDS011;54397;47.506;19.158;2023-12-29T04:13:04;44.70;;;23.23;;
67571;SDS011;54397;47.506;19.158;2023-12-29T04:16:26;36.73;;;21.27;;
67571;SDS011;54397;47.506;19.158;2023-12-29T04:19:47;49.37;;;22.90;;
67571;SDS011;54397;47.506;19.158;2023-12-29T04:23:09;44.20;;;22.43;;
67571;SDS011;54397;47.506;19.158;2023-12-29T04:26:36;33.67;;;20.73;;
67571;SDS011;54397;47.506;19.158;2023-12-29T04:29:58;42.10;;;20.67;;
67571;SDS011;54397;47.506;19.158;2023-12-29T04:33:20;35.20;;;21.17;;
67571;SDS011;54397;47.506;19.158;2023-12-29T04:36:44;37.23;;;21.03;;
67571;SDS011;54397;47.506;19.158;2023-12-29T04:40:08;33.10;;;20.73;;
67571;SDS011;54397;47.506;19.158;2023-12-29T04:43:32;35.30;;;21.03;;
67571;SDS011;54397;47.506;19.158;2023-12-29T04:46:54;35.43;;;21.73;;
67571;SDS011;54397;47.506;19.158;2023-12-29T04:50:16;34.37;;;21.73;;
67571;SDS011;54397;47.506;19.158;2023-12-29T04:53:40;33.13;;;21.37;;
67571;SDS011;54397;47.506;19.158;2023-12-29T04:57:04;33.80;;;21.67;;
67571;SDS011;54397;47.506;19.158;2023-12-29T05:00:26;34.03;;;21.30;;
67571;SDS011;54397;47.506;19.158;2023-12-29T05:03:48;36.60;;;20.93;;
67571;SDS011;54397;47.506;19.158;2023-12-29T05:07:11;34.73;;;21.50;;
67571;SDS011;54397;47.506;19.158;2023-12-29T05:10:33;39.87;;;22.13;;
67571;SDS011;54397;47.506;19.158;2023-12-29T05:13:56;31.87;;;21.23;;
67571;SDS011;54397;47.506;19.158;2023-12-29T05:17:19;41.13;;;21.27;;
67571;SDS011;54397;47.506;19.158;2023-12-29T05:20:41;34.40;;;20.13;;
67571;SDS011;54397;47.506;19.158;2023-12-29T05:24:03;40.83;;;20.20;;
67571;SDS011;54397;47.506;19.158;2023-12-29T05:27:27;33.97;;;19.57;;
67571;SDS011;54397;47.506;19.158;2023-12-29T05:30:51;37.80;;;19.43;;
67571;SDS011;54397;47.506;19.158;2023-12-29T05:34:15;41.47;;;19.33;;
67571;SDS011;54397;47.506;19.158;2023-12-29T05:37:37;28.60;;;18.80;;
67571;SDS011;54397;47.506;19.158;2023-12-29T05:40:59;26.83;;;18.40;;
67571;SDS011;54397;47.506;19.158;2023-12-29T05:44:23;28.97;;;18.67;;
67571;SDS011;54397;47.506;19.158;2023-12-29T05:47:45;32.20;;;20.03;;
67571;SDS011;54397;47.506;19.158;2023-12-29T05:51:09;37.50;;;20.97;;
67571;SDS011;54397;47.506;19.158;2023-12-29T05:54:35;30.67;;;20.07;;
67571;SDS011;54397;47.506;19.158;2023-12-29T05:57:57;35.53;;;20.83;;
67571;SDS011;54397;47.506;19.158;2023-12-29T06:01:19;27.80;;;19.43;;
67571;SDS011;54397;47.506;19.158;2023-12-29T06:04:43;30.63;;;20.33;;
67571;SDS011;54397;47.506;19.158;2023-12-29T06:08:07;34.10;;;20.50;;
67571;SDS011;54397;47.506;19.158;2023-12-29T06:11:34;34.53;;;19.97;;
67571;SDS011;54397;47.506;19.158;2023-12-29T06:14:56;42.13;;;20.93;;
67571;SDS011;54397;47.506;19.158;2023-12-29T06:18:20;30.87;;;21.23;;
67571;SDS011;54397;47.506;19.158;2023-12-29T06:21:44;34.63;;;21.50;;
67571;SDS011;54397;47.506;19.158;2023-12-29T06:25:12;33.20;;;18.63;;
67571;SDS011;54397;47.506;19.158;2023-12-29T06:28:36;32.13;;;19.37;;
67571;SDS011;54397;47.506;19.158;2023-12-29T06:32:03;26.73;;;18.83;;
67571;SDS011;54397;47.506;19.158;2023-12-29T06:35:27;39.67;;;19.00;;
67571;SDS011;54397;47.506;19.158;2023-12-29T06:38:49;34.17;;;20.13;;
67571;SDS011;54397;47.506;19.158;2023-12-29T06:42:15;30.67;;;19.83;;
67571;SDS011;54397;47.506;19.158;2023-12-29T06:45:36;32.07;;;20.20;;
67571;SDS011;54397;47.506;19.158;2023-12-29T06:48:58;29.10;;;19.93;;
67571;SDS011;54397;47.506;19.158;2023-12-29T06:52:20;34.50;;;19.87;;
67571;SDS011;54397;47.506;19.158;2023-12-29T06:55:44;30.30;;;19.53;;
67571;SDS011;54397;47.506;19.158;2023-12-29T06:59:06;28.53;;;18.67;;
67571;SDS011;54397;47.506;19.158;2023-12-29T07:02:30;36.77;;;20.93;;
67571;SDS011;54397;47.506;19.158;2023-12-29T07:05:57;39.53;;;23.80;;
67571;SDS011;54397;47.506;19.158;2023-12-29T07:09:24;30.80;;;17.33;;
67571;SDS011;54397;47.506;19.158;2023-12-29T07:12:47;24.30;;;17.43;;
67571;SDS011;54397;47.506;19.158;2023-12-29T07:16:09;28.77;;;17.03;;
67571;SDS011;54397;47.506;19.158;2023-12-29T07:19:36;25.03;;;16.70;;
67571;SDS011;54397;47.506;19.158;2023-12-29T07:22:59;23.73;;;16.33;;
67571;SDS011;54397;47.506;19.158;2023-12-29T07:26:23;27.47;;;17.40;;
67571;SDS011;54397;47.506;19.158;2023-12-29T07:29:45;23.37;;;15.70;;
67571;SDS011;54397;47.506;19.158;2023-12-29T07:33:07;24.53;;;18.53;;
67571;SDS011;54397;47.506;19.158;2023-12-29T07:36:28;25.10;;;18.17;;
67571;SDS011;54397;47.506;19.158;2023-12-29T07:39:50;28.50;;;18.73;;
67571;SDS011;54397;47.506;19.158;2023-12-29T07:43:13;26.47;;;18.13;;
67571;SDS011;54397;47.506;19.158;2023-12-29T07:46:36;25.57;;;16.37;;
67571;SDS011;54397;47.506;19.158;2023-12-29T07:50:01;23.33;;;15.80;;
67571;SDS011;54397;47.506;19.158;2023-12-29T07:53:23;22.80;;;15.83;;
67571;SDS011;54397;47.506;19.158;2023-12-29T07:56:47;22.67;;;16.07;;
67571;SDS011;54397;47.506;19.158;2023-12-29T08:00:09;25.83;;;16.97;;
67571;SDS011;54397;47.506;19.158;2023-12-29T08:03:34;23.80;;;16.57;;
67571;SDS011;54397;47.506;19.158;2023-12-29T08:06:57;27.67;;;17.53;;
67571;SDS011;54397;47.506;19.158;2023-12-29T08:10:18;29.13;;;18.20;;
67571;SDS011;54397;47.506;19.158;2023-12-29T08:13:40;29.33;;;17.70;;
67571;SDS011;54397;47.506;19.158;2023-12-29T08:17:02;25.63;;;17.67;;
67571;SDS011;54397;47.506;19.158;2023-12-29T08:20:26;29.27;;;17.93;;
67571;SDS011;54397;47.506;19.158;2023-12-29T08:23:53;28.37;;;17.97;;
67571;SDS011;54397;47.506;19.158;2023-12-29T08:27:25;25.77;;;17.87;;
67571;SDS011;54397;47.506;19.158;2023-12-29T08:30:49;29.77;;;17.93;;
67571;SDS011;54397;47.506;19.158;2023-12-29T08:34:11;28.63;;;17.03;;
67571;SDS011;54397;47.506;19.158;2023-12-29T08:37:34;26.20;;;17.27;;
67571;SDS011;54397;47.506;19.158;2023-12-29T08:40:55;25.50;;;17.93;;
67571;SDS011;54397;47.506;19.158;2023-12-29T08:44:20;29.20;;;18.47;;
67571;SDS011;54397;47.506;19.158;2023-12-29T08:47:44;26.87;;;18.60;;
67571;SDS011;54397;47.506;19.158;2023-12-29T08:51:06;33.67;;;19.67;;
67571;SDS011;54397;47.506;19.158;2023-12-29T08:54:27;32.93;;;21.43;;
67571;SDS011;54397;47.506;19.158;2023-12-29T08:57:49;32.60;;;22.00;;
67571;SDS011;54397;47.506;19.158;2023-12-29T09:01:16;30.97;;;21.50;;
67571;SDS011;54397;47.506;19.158;2023-12-29T09:04:41;37.83;;;21.30;;
67571;SDS011;54397;47.506;19.158;2023-12-29T09:08:02;30.63;;;19.83;;
67571;SDS011;54397;47.506;19.158;2023-12-29T09:11:26;31.60;;;20.13;;
67571;SDS011;54397;47.506;19.158;2023-12-29T09:14:48;28.67;;;19.83;;
67571;SDS011;54397;47.506;19.158;2023-12-29T09:18:10;35.43;;;20.70;;
67571;SDS011;54397;47.506;19.158;2023-12-29T09:21:32;39.50;;;25.90;;
67571;SDS011;54397;47.506;19.158;2023-12-29T09:24:54;30.73;;;20.27;;
67571;SDS011;54397;47.506;19.158;2023-12-29T09:28:16;32.17;;;20.90;;
67571;SDS011;54397;47.506;19.158;2023-12-29T09:31:40;37.53;;;19.43;;
67571;SDS011;54397;47.506;19.158;2023-12-29T09:35:03;35.83;;;20.77;;
67571;SDS011;54397;47.506;19.158;2023-12-29T09:38:25;34.57;;;19.87;;
67571;SDS011;54397;47.506;19.158;2023-12-29T09:41:47;36.43;;;19.93;;
67571;SDS011;54397;47.506;19.158;2023-12-29T09:45:21;36.97;;;22.80;;
67571;SDS011;54397;47.506;19.158;2023-12-29T09:48:47;30.35;;;19.63;;
67571;SDS011;54397;47.506;19.158;2023-12-29T09:52:13;32.17;;;20.53;;
67571;SDS011;54397;47.506;19.158;2023-12-29T09:55:38;33.93;;;20.90;;
67571;SDS011;54397;47.506;19.158;2023-12-29T09:59:02;31.53;;;20.57;;
67571;SDS011;54397;47.506;19.158;2023-12-29T10:02:24;30.40;;;19.43;;
67571;SDS011;54397;47.506;19.158;2023-12-29T10:05:51;28.37;;;19.37;;
67571;SDS011;54397;47.506;19.158;2023-12-29T10:09:18;24.58;;;18.33;;
67571;SDS011;54397;47.506;19.158;2023-12-29T10:12:44;23.30;;;16.52;;
67571;SDS011;54397;47.506;19.158;2023-12-29T10:16:28;26.60;;;18.25;;
67571;SDS011;54397;47.506;19.158;2023-12-29T10:24:44;16.85;;;12.65;;
67571;SDS011;54397;47.506;19.158;2023-12-29T10:28:11;17.77;;;12.68;;
67571;SDS011;54397;47.506;19.158;2023-12-29T10:31:37;17.80;;;12.40;;
67571;SDS011;54397;47.506;19.158;2023-12-29T10:35:08;18.15;;;13.07;;
67571;SDS011;54397;47.506;19.158;2023-12-29T10:38:33;18.05;;;13.27;;
67571;SDS011;54397;47.506;19.158;2023-12-29T10:42:04;17.88;;;12.30;;
67571;SDS011;54397;47.506;19.158;2023-12-29T10:45:28;23.15;;;18.05;;
67571;SDS011;54397;47.506;19.158;2023-12-29T10:48:52;21.30;;;15.88;;
67571;SDS011;54397;47.506;19.158;2023-12-29T10:52:14;29.08;;;20.33;;
67571;SDS011;54397;47.506;19.158;2023-12-29T10:55:39;19.65;;;12.63;;
67571;SDS011;54397;47.506;19.158;2023-12-29T10:59:02;15.73;;;12.90;;
67571;SDS011;54397;47.506;19.158;2023-12-29T11:02:27;19.77;;;13.52;;
67571;SDS011;54397;47.506;19.158;2023-12-29T11:05:59;18.33;;;13.60;;
67571;SDS011;54397;47.506;19.158;2023-12-29T11:12:56;15.60;;;12.38;;
67571;SDS011;54397;47.506;19.158;2023-12-29T11:16:21;16.25;;;12.07;;
67571;SDS011;54397;47.506;19.158;2023-12-29T11:19:44;17.98;;;13.35;;
67571;SDS011;54397;47.506;19.158;2023-12-29T11:23:13;18.50;;;13.63;;
67571;SDS011;54397;47.506;19.158;2023-12-29T11:26:35;18.55;;;14.05;;
67571;SDS011;54397;47.506;19.158;2023-12-29T11:29:58;20.25;;;14.00;;
67571;SDS011;54397;47.506;19.158;2023-12-29T11:33:23;14.70;;;12.68;;
67571;SDS011;54397;47.506;19.158;2023-12-29T11:36:54;16.38;;;13.82;;
67571;SDS011;54397;47.506;19.158;2023-12-29T11:44:25;15.32;;;13.27;;
67571;SDS011;54397;47.506;19.158;2023-12-29T11:47:48;16.15;;;13.23;;
67571;SDS011;54397;47.506;19.158;2023-12-29T11:55:12;20.13;;;14.15;;
67571;SDS011;54397;47.506;19.158;2023-12-29T11:58:36;16.52;;;14.50;;
67571;SDS011;54397;47.506;19.158;2023-12-29T12:01:58;18.83;;;15.00;;
67571;SDS011;54397;47.506;19.158;2023-12-29T12:09:17;13.30;;;11.45;;
67571;SDS011;54397;47.506;19.158;2023-12-29T12:12:43;18.73;;;11.93;;
67571;SDS011;54397;47.506;19.158;2023-12-29T12:16:05;13.82;;;11.15;;
67571;SDS011;54397;47.506;19.158;2023-12-29T12:19:29;12.85;;;9.73;;
67571;SDS011;54397;47.506;19.158;2023-12-29T12:22:57;12.35;;;9.85;;
67571;SDS011;54397;47.506;19.158;2023-12-29T12:26:19;14.77;;;9.98;;
67571;SDS011;54397;47.506;19.158;2023-12-29T12:29:43;13.27;;;10.02;;
67571;SDS011;54397;47.506;19.158;2023-12-29T12:33:05;14.15;;;9.65;;
67571;SDS011;54397;47.506;19.158;2023-12-29T12:40:09;12.93;;;9.57;;
67571;SDS011;54397;47.506;19.158;2023-12-29T12:43:31;15.68;;;11.63;;
67571;SDS011;54397;47.506;19.158;2023-12-29T12:46:57;16.30;;;11.82;;
67571;SDS011;54397;47.506;19.158;2023-12-29T12:50:25;15.43;;;11.73;;
67571;SDS011;54397;47.506;19.158;2023-12-29T12:53:48;15.35;;;12.35;;
67571;SDS011;54397;47.506;19.158;2023-12-29T12:57:17;17.75;;;13.77;;
67571;SDS011;54397;47.506;19.158;2023-12-29T13:00:41;18.70;;;15.02;;
67571;SDS011;54397;47.506;19.158;2023-12-29T13:04:07;20.67;;;15.38;;
67571;SDS011;54397;47.506;19.158;2023-12-29T13:07:30;19.30;;;15.30;;
67571;SDS011;54397;47.506;19.158;2023-12-29T13:10:54;20.92;;;16.55;;
67571;SDS011;54397;47.506;19.158;2023-12-29T13:14:20;22.00;;;17.05;;
67571;SDS011;54397;47.506;19.158;2023-12-29T13:17:52;21.90;;;15.18;;
67571;SDS011;54397;47.506;19.158;2023-12-29T13:21:17;20.45;;;15.90;;
67571;SDS011;54397;47.506;19.158;2023-12-29T13:24:46;20.33;;;14.98;;
67571;SDS011;54397;47.506;19.158;2023-12-29T13:28:08;20.60;;;15.80;;
67571;SDS011;54397;47.506;19.158;2023-12-29T13:31:32;19.13;;;15.45;;
67571;SDS011;54397;47.506;19.158;2023-12-29T13:38:40;18.30;;;14.60;;
67571;SDS011;54397;47.506;19.158;2023-12-29T13:42:08;22.85;;;15.15;;
67571;SDS011;54397;47.506;19.158;2023-12-29T13:45:31;21.38;;;15.77;;
67571;SDS011;54397;47.506;19.158;2023-12-29T13:48:56;23.77;;;15.88;;
67571;SDS011;54397;47.506;19.158;2023-12-29T13:52:23;21.77;;;15.95;;
67571;SDS011;54397;47.506;19.158;2023-12-29T13:55:45;23.80;;;15.27;;
67571;SDS011;54397;47.506;19.158;2023-12-29T13:59:09;21.95;;;15.77;;
67571;SDS011;54397;47.506;19.158;2023-12-29T14:02:31;23.70;;;14.73;;
67571;SDS011;54397;47.506;19.158;2023-12-29T14:09:15;21.45;;;14.60;;
67571;SDS011;54397;47.506;19.158;2023-12-29T14:12:38;21.83;;;15.05;;
67571;SDS011;54397;47.506;19.158;2023-12-29T14:16:02;21.17;;;14.55;;
67571;SDS011;54397;47.506;19.158;2023-12-29T14:19:24;25.15;;;14.73;;
67571;SDS011;54397;47.506;19.158;2023-12-29T14:22:46;26.17;;;15.98;;
67571;SDS011;54397;47.506;19.158;2023-12-29T14:26:13;20.13;;;15.30;;
67571;SDS011;54397;47.506;19.158;2023-12-29T14:29:39;20.70;;;15.35;;
67571;SDS011;54397;47.506;19.158;2023-12-29T14:33:06;20.80;;;15.60;;
67571;SDS011;54397;47.506;19.158;2023-12-29T14:36:33;22.67;;;16.42;;
67571;SDS011;54397;47.506;19.158;2023-12-29T14:39:55;21.88;;;15.43;;
67571;SDS011;54397;47.506;19.158;2023-12-29T14:43:19;21.00;;;16.13;;
67571;SDS011;54397;47.506;19.158;2023-12-29T14:46:41;21.25;;;16.35;;
67571;SDS011;54397;47.506;19.158;2023-12-29T14:50:03;22.77;;;16.80;;
67571;SDS011;54397;47.506;19.158;2023-12-29T14:53:25;22.30;;;16.52;;
67571;SDS011;54397;47.506;19.158;2023-12-29T14:56:47;25.33;;;17.10;;
67571;SDS011;54397;47.506;19.158;2023-12-29T15:00:08;26.83;;;16.95;;
67571;SDS011;54397;47.506;19.158;2023-12-29T15:03:30;24.77;;;16.25;;
67571;SDS011;54397;47.506;19.158;2023-12-29T15:06:52;24.75;;;16.75;;
67571;SDS011;54397;47.506;19.158;2023-12-29T15:10:14;23.00;;;16.65;;
67571;SDS011;54397;47.506;19.158;2023-12-29T15:13:36;32.03;;;17.67;;
67571;SDS011;54397;47.506;19.158;2023-12-29T15:17:01;51.97;;;33.17;;
67571;SDS011;54397;47.506;19.158;2023-12-29T15:20:23;32.63;;;19.95;;
67571;SDS011;54397;47.506;19.158;2023-12-29T15:23:49;26.42;;;17.95;;
67571;SDS011;54397;47.506;19.158;2023-12-29T15:27:15;33.53;;;17.48;;
67571;SDS011;54397;47.506;19.158;2023-12-29T15:30:36;39.75;;;23.73;;
67571;SDS011;54397;47.506;19.158;2023-12-29T15:33:58;25.10;;;17.45;;
67571;SDS011;54397;47.506;19.158;2023-12-29T15:37:20;26.73;;;17.52;;
67571;SDS011;54397;47.506;19.158;2023-12-29T15:40:42;29.80;;;17.80;;
67571;SDS011;54397;47.506;19.158;2023-12-29T15:44:04;35.60;;;19.92;;
67571;SDS011;54397;47.506;19.158;2023-12-29T15:47:28;50.05;;;31.52;;
67571;SDS011;54397;47.506;19.158;2023-12-29T15:50:49;32.80;;;19.08;;
67571;SDS011;54397;47.506;19.158;2023-12-29T15:54:11;29.95;;;19.75;;
67571;SDS011;54397;47.506;19.158;2023-12-29T15:57:33;34.17;;;20.58;;
67571;SDS011;54397;47.506;19.158;2023-12-29T16:00:54;32.22;;;19.45;;
67571;SDS011;54397;47.506;19.158;2023-12-29T16:04:16;32.45;;;20.73;;
67571;SDS011;54397;47.506;19.158;2023-12-29T16:07:38;36.42;;;21.05;;
67571;SDS011;54397;47.506;19.158;2023-12-29T16:11:00;37.15;;;21.30;;
67571;SDS011;54397;47.506;19.158;2023-12-29T16:14:24;34.13;;;22.30;;
67571;SDS011;54397;47.506;19.158;2023-12-29T16:17:47;31.92;;;21.23;;
67571;SDS011;54397;47.506;19.158;2023-12-29T16:21:08;43.90;;;22.98;;
67571;SDS011;54397;47.506;19.158;2023-12-29T16:24:30;38.92;;;21.13;;
67571;SDS011;54397;47.506;19.158;2023-12-29T16:27:54;33.88;;;21.17;;
67571;SDS011;54397;47.506;19.158;2023-12-29T16:31:16;32.25;;;20.58;;
67571;SDS011;54397;47.506;19.158;2023-12-29T16:34:38;34.28;;;20.38;;
67571;SDS011;54397;47.506;19.158;2023-12-29T16:38:01;27.70;;;19.95;;
67571;SDS011;54397;47.506;19.158;2023-12-29T16:41:28;37.00;;;20.77;;
67571;SDS011;54397;47.506;19.158;2023-12-29T16:44:50;44.30;;;21.87;;
67571;SDS011;54397;47.506;19.158;2023-12-29T16:48:11;36.28;;;21.58;;
67571;SDS011;54397;47.506;19.158;2023-12-29T16:51:33;45.28;;;28.83;;
67571;SDS011;54397;47.506;19.158;2023-12-29T16:54:55;48.80;;;29.60;;
67571;SDS011;54397;47.506;19.158;2023-12-29T16:58:17;55.33;;;29.23;;
67571;SDS011;54397;47.506;19.158;2023-12-29T17:01:45;50.13;;;28.87;;
67571;SDS011;54397;47.506;19.158;2023-12-29T17:05:07;47.87;;;27.37;;
67571;SDS011;54397;47.506;19.158;2023-12-29T17:08:32;53.40;;;31.60;;
67571;SDS011;54397;47.506;19.158;2023-12-29T17:11:57;38.07;;;23.90;;
67571;SDS011;54397;47.506;19.158;2023-12-29T17:15:19;42.65;;;26.30;;
67571;SDS011;54397;47.506;19.158;2023-12-29T17:18:43;71.50;;;36.67;;
67571;SDS011;54397;47.506;19.158;2023-12-29T17:22:05;52.87;;;27.57;;
67571;SDS011;54397;47.506;19.158;2023-12-29T17:25:29;54.70;;;26.77;;
67571;SDS011;54397;47.506;19.158;2023-12-29T17:28:55;50.27;;;27.70;;
67571;SDS011;54397;47.506;19.158;2023-12-29T17:32:17;36.53;;;24.63;;
67571;SDS011;54397;47.506;19.158;2023-12-29T17:35:41;34.00;;;22.03;;
67571;SDS011;54397;47.506;19.158;2023-12-29T17:39:05;38.73;;;22.97;;
67571;SDS011;54397;47.506;19.158;2023-12-29T17:42:26;38.83;;;24.17;;
67571;SDS011;54397;47.506;19.158;2023-12-29T17:45:51;35.70;;;23.97;;
67571;SDS011;54397;47.506;19.158;2023-12-29T17:49:13;45.70;;;27.83;;
67571;SDS011;54397;47.506;19.158;2023-12-29T17:52:34;53.13;;;30.07;;
67571;SDS011;54397;47.506;19.158;2023-12-29T17:55:59;49.10;;;28.07;;
67571;SDS011;54397;47.506;19.158;2023-12-29T17:59:24;47.80;;;28.87;;
67571;SDS011;54397;47.506;19.158;2023-12-29T18:02:45;46.87;;;28.83;;
67571;SDS011;54397;47.506;19.158;2023-12-29T18:06:07;41.43;;;27.07;;
67571;SDS011;54397;47.506;19.158;2023-12-29T18:09:38;50.40;;;28.20;;
67571;SDS011;54397;47.506;19.158;2023-12-29T18:13:01;40.57;;;25.73;;
67571;SDS011;54397;47.506;19.158;2023-12-29T18:16:24;39.67;;;23.60;;
67571;SDS011;54397;47.506;19.158;2023-12-29T18:19:50;47.33;;;25.80;;
67571;SDS011;54397;47.506;19.158;2023-12-29T18:23:12;39.17;;;25.07;;
67571;SDS011;54397;47.506;19.158;2023-12-29T18:26:39;36.23;;;23.40;;
67571;SDS011;54397;47.506;19.158;2023-12-29T18:30:04;35.17;;;22.37;;
67571;SDS011;54397;47.506;19.158;2023-12-29T18:33:29;44.43;;;22.37;;
67571;SDS011;54397;47.506;19.158;2023-12-29T18:36:59;36.40;;;22.60;;
67571;SDS011;54397;47.506;19.158;2023-12-29T18:40:23;41.43;;;22.40;;
67571;SDS011;54397;47.506;19.158;2023-12-29T18:43:48;36.47;;;22.47;;
67571;SDS011;54397;47.506;19.158;2023-12-29T18:47:09;40.83;;;22.60;;
67571;SDS011;54397;47.506;19.158;2023-12-29T18:50:32;33.57;;;21.63;;
67571;SDS011;54397;47.506;19.158;2023-12-29T18:53:54;36.97;;;21.47;;
67571;SDS011;54397;47.506;19.158;2023-12-29T18:57:16;39.70;;;22.73;;
67571;SDS011;54397;47.506;19.158;2023-12-29T19:00:40;39.50;;;24.20;;
67571;SDS011;54397;47.506;19.158;2023-12-29T19:04:06;44.73;;;24.87;;
67571;SDS011;54397;47.506;19.158;2023-12-29T19:07:29;47.13;;;25.47;;
67571;SDS011;54397;47.506;19.158;2023-12-29T19:10:51;48.40;;;24.90;;
67571;SDS011;54397;47.506;19.158;2023-12-29T19:14:16;46.63;;;25.73;;
67571;SDS011;54397;47.506;19.158;2023-12-29T19:17:38;57.27;;;29.87;;
67571;SDS011;54397;47.506;19.158;2023-12-29T19:21:02;51.53;;;28.17;;
67571;SDS011;54397;47.506;19.158;2023-12-29T19:24:31;52.90;;;28.13;;
67571;SDS011;54397;47.506;19.158;2023-12-29T19:28:00;48.07;;;27.90;;
67571;SDS011;54397;47.506;19.158;2023-12-29T19:31:23;65.03;;;31.20;;
67571;SDS011;54397;47.506;19.158;2023-12-29T19:34:48;56.73;;;30.23;;
67571;SDS011;54397;47.506;19.158;2023-12-29T19:38:11;55.97;;;30.43;;
67571;SDS011;54397;47.506;19.158;2023-12-29T19:41:44;51.00;;;27.03;;
67571;SDS011;54397;47.506;19.158;2023-12-29T19:45:06;47.20;;;28.07;;
67571;SDS011;54397;47.506;19.158;2023-12-29T19:48:35;45.40;;;27.97;;
67571;SDS011;54397;47.506;19.158;2023-12-29T19:51:57;46.40;;;27.23;;
67571;SDS011;54397;47.506;19.158;2023-12-29T19:55:21;38.20;;;22.87;;
67571;SDS011;54397;47.506;19.158;2023-12-29T19:58:43;30.83;;;20.80;;
67571;SDS011;54397;47.506;19.158;2023-12-29T20:02:05;32.37;;;22.10;;
67571;SDS011;54397;47.506;19.158;2023-12-29T20:05:27;37.80;;;23.27;;
67571;SDS011;54397;47.506;19.158;2023-12-29T20:08:54;37.37;;;24.27;;
67571;SDS011;54397;47.506;19.158;2023-12-29T20:12:18;40.33;;;26.00;;